UAE414 YSSY-OMDB
Flight info
| Callsign | UAE414 |
|---|---|
| Flight time | N/A |
| Altitude | 28000 |
| Route | GROOK1/16R KADOM A576 AS A587 DOPUK/N0510F300 A587 ONOXA G326 BLI M635 TAVIP/N0505F320 M635 JUNHA DCT IRTAD A464 SJ G579 VJB Y342 AROSO Y513 KALIL Y504 BILIK G582 PUGER P574 GIRNA/N0496F340 P574 PAROK Q899 ITURA M762 VAXAS/N0457F240 M762 MIVEK P574 IMPED |
| Aircraft | B77W/H-SDE1E2E3FGHIJ2J3J4J5M1RWXY/LB1D1 |
Departure
| Time | 2026-04-24 13:38 |
|---|---|
| Airport | Sydney Kingsford Smith International Airport (YSSY) |
Arrival
| Time | N/A |
|---|---|
| Airport | Dubai International Airport (OMDB) |
| Time | Latitude | Longitude | Altitude | Speed | Heading |
|---|---|---|---|---|---|
| 2026-04-24 13:13 | -33.93611 | 151.17011 | 34 ft | 0 kts | 168° |
| 2026-04-24 13:21 | -33.93603 | 151.17009 | 33 ft | 4 kts | 167° |
| 2026-04-24 13:21 | -33.93577 | 151.17000 | 34 ft | 4 kts | 159° |
| 2026-04-24 13:21 | -33.93552 | 151.16987 | 33 ft | 4 kts | 149° |
| 2026-04-24 13:22 | -33.93530 | 151.16968 | 34 ft | 4 kts | 131° |
| 2026-04-24 13:22 | -33.93519 | 151.16943 | 32 ft | 4 kts | 87° |
| 2026-04-24 13:22 | -33.93519 | 151.16936 | 31 ft | 0 kts | 78° |
| 2026-04-24 13:26 | -33.93514 | 151.16965 | 35 ft | 7 kts | 78° |
| 2026-04-24 13:26 | -33.93501 | 151.17036 | 34 ft | 11 kts | 75° |
| 2026-04-24 13:27 | -33.93440 | 151.17088 | 34 ft | 13 kts | 355° |
| 2026-04-24 13:27 | -33.93351 | 151.17056 | 34 ft | 14 kts | 337° |
| 2026-04-24 13:27 | -33.93278 | 151.16985 | 34 ft | 14 kts | 322° |
| 2026-04-24 13:27 | -33.93190 | 151.16945 | 34 ft | 14 kts | 350° |
| 2026-04-24 13:28 | -33.93098 | 151.16922 | 35 ft | 13 kts | 348° |
| 2026-04-24 13:28 | -33.93014 | 151.16919 | 35 ft | 11 kts | 18° |
| 2026-04-24 13:28 | -33.92980 | 151.16985 | 35 ft | 10 kts | 83° |
| 2026-04-24 13:28 | -33.92975 | 151.17018 | 35 ft | 0 kts | 72° |
| 2026-04-24 13:35 | -33.92975 | 151.17021 | 34 ft | 1 kts | 73° |
| 2026-04-24 13:35 | -33.92969 | 151.17044 | 35 ft | 4 kts | 73° |
| 2026-04-24 13:36 | -33.92961 | 151.17093 | 35 ft | 7 kts | 92° |
| 2026-04-24 13:36 | -33.92984 | 151.17157 | 34 ft | 9 kts | 130° |
| 2026-04-24 13:36 | -33.93026 | 151.17183 | 35 ft | 0 kts | 169° |
| 2026-04-24 13:37 | -33.93081 | 151.17196 | 35 ft | 25 kts | 169° |
| 2026-04-24 13:38 | -33.93507 | 151.17307 | 31 ft | 101 kts | 168° |
| 2026-04-24 13:38 | -33.94431 | 151.17545 | 34 ft | 169 kts | 168° |
| 2026-04-24 13:38 | -33.95737 | 151.17858 | 290 ft | 198 kts | 170° |
| 2026-04-24 13:38 | -33.97110 | 151.18105 | 956 ft | 198 kts | 179° |
| 2026-04-24 13:39 | -33.98484 | 151.17980 | 1657 ft | 200 kts | 185° |
| 2026-04-24 13:39 | -33.99926 | 151.17810 | 1870 ft | 216 kts | 184° |
| 2026-04-24 13:39 | -34.01467 | 151.17638 | 2023 ft | 229 kts | 185° |
| 2026-04-24 13:39 | -34.03094 | 151.17564 | 2164 ft | 238 kts | 169° |
| 2026-04-24 13:40 | -34.04709 | 151.18123 | 2365 ft | 247 kts | 161° |
| 2026-04-24 13:40 | -34.06400 | 151.18740 | 2576 ft | 261 kts | 163° |
| 2026-04-24 13:40 | -34.08176 | 151.19338 | 2966 ft | 269 kts | 163° |
| 2026-04-24 13:40 | -34.10008 | 151.19855 | 3385 ft | 273 kts | 175° |
| 2026-04-24 13:41 | -34.11893 | 151.19520 | 3774 ft | 279 kts | 204° |
| 2026-04-24 13:41 | -34.13468 | 151.18159 | 4233 ft | 283 kts | 231° |
| 2026-04-24 13:41 | -34.14384 | 151.16076 | 4697 ft | 283 kts | 258° |
| 2026-04-24 13:41 | -34.14442 | 151.13722 | 5180 ft | 283 kts | 285° |
| 2026-04-24 13:42 | -34.13730 | 151.11524 | 5643 ft | 283 kts | 299° |
| 2026-04-24 13:42 | -34.12775 | 151.09472 | 6128 ft | 285 kts | 302° |
| 2026-04-24 13:42 | -34.11747 | 151.07383 | 6626 ft | 288 kts | 302° |
| 2026-04-24 13:42 | -34.10716 | 151.05303 | 7118 ft | 290 kts | 302° |
| 2026-04-24 13:43 | -34.09685 | 151.03236 | 7550 ft | 294 kts | 303° |
| 2026-04-24 13:43 | -34.08629 | 151.01106 | 7991 ft | 297 kts | 303° |
| 2026-04-24 13:43 | -34.07566 | 150.98963 | 8451 ft | 299 kts | 302° |
| 2026-04-24 13:43 | -34.06491 | 150.96801 | 8928 ft | 301 kts | 302° |
| 2026-04-24 13:44 | -34.05403 | 150.94622 | 9342 ft | 306 kts | 303° |
| 2026-04-24 13:44 | -34.04297 | 150.92415 | 9772 ft | 309 kts | 303° |
| 2026-04-24 13:44 | -34.03181 | 150.90195 | 10202 ft | 313 kts | 303° |
| 2026-04-24 13:44 | -34.02023 | 150.87900 | 10337 ft | 328 kts | 303° |
| 2026-04-24 13:45 | -34.00808 | 150.85500 | 10472 ft | 343 kts | 302° |
| 2026-04-24 13:45 | -33.99536 | 150.82998 | 10596 ft | 358 kts | 302° |
| 2026-04-24 13:45 | -33.98204 | 150.80387 | 10732 ft | 373 kts | 302° |
| 2026-04-24 13:45 | -33.96825 | 150.77691 | 11054 ft | 382 kts | 302° |
| 2026-04-24 13:46 | -33.95417 | 150.74946 | 11483 ft | 388 kts | 302° |
| 2026-04-24 13:46 | -33.93991 | 150.72172 | 12090 ft | 390 kts | 302° |
| 2026-04-24 13:46 | -33.92557 | 150.69390 | 12743 ft | 392 kts | 302° |
| 2026-04-24 13:46 | -33.91109 | 150.66595 | 13394 ft | 395 kts | 302° |
| 2026-04-24 13:47 | -33.89642 | 150.63774 | 14024 ft | 399 kts | 302° |
| 2026-04-24 13:47 | -33.88157 | 150.60933 | 14625 ft | 403 kts | 302° |
| 2026-04-24 13:47 | -33.86653 | 150.58067 | 15208 ft | 406 kts | 302° |
| 2026-04-24 13:47 | -33.85137 | 150.55180 | 15799 ft | 409 kts | 302° |
| 2026-04-24 13:48 | -33.83609 | 150.52276 | 16388 ft | 413 kts | 302° |
| 2026-04-24 13:48 | -33.82089 | 150.49391 | 16957 ft | 416 kts | 302° |
| 2026-04-24 13:48 | -33.80536 | 150.46444 | 17528 ft | 419 kts | 302° |
| 2026-04-24 13:48 | -33.78969 | 150.43472 | 18074 ft | 423 kts | 302° |
| 2026-04-24 13:49 | -33.77390 | 150.40476 | 18623 ft | 426 kts | 302° |
| 2026-04-24 13:49 | -33.75794 | 150.37449 | 19138 ft | 430 kts | 302° |
| 2026-04-24 13:49 | -33.74190 | 150.34400 | 19594 ft | 433 kts | 302° |
| 2026-04-24 13:49 | -33.72575 | 150.31342 | 20095 ft | 436 kts | 302° |
| 2026-04-24 13:50 | -33.70938 | 150.28256 | 20567 ft | 439 kts | 302° |
| 2026-04-24 13:50 | -33.69289 | 150.25157 | 21031 ft | 442 kts | 302° |
| 2026-04-24 13:50 | -33.67624 | 150.22034 | 21503 ft | 445 kts | 302° |
| 2026-04-24 13:50 | -33.65948 | 150.18893 | 21948 ft | 447 kts | 301° |
| 2026-04-24 13:51 | -33.64611 | 150.15538 | 22186 ft | 449 kts | 283° |
| 2026-04-24 13:51 | -33.64086 | 150.11836 | 22543 ft | 452 kts | 274° |
| 2026-04-24 13:51 | -33.63794 | 150.08073 | 23049 ft | 453 kts | 275° |
| 2026-04-24 13:51 | -33.63399 | 150.04313 | 23534 ft | 456 kts | 278° |
| 2026-04-24 13:52 | -33.62805 | 150.00574 | 23981 ft | 459 kts | 281° |
| 2026-04-24 13:52 | -33.62019 | 149.96828 | 24338 ft | 463 kts | 284° |
| 2026-04-24 13:52 | -33.61101 | 149.93109 | 24678 ft | 467 kts | 286° |
| 2026-04-24 13:52 | -33.60100 | 149.89389 | 25000 ft | 471 kts | 287° |
| 2026-04-24 13:53 | -33.59058 | 149.85660 | 25351 ft | 473 kts | 287° |
| 2026-04-24 13:53 | -33.58000 | 149.81917 | 25705 ft | 475 kts | 287° |
| 2026-04-24 13:53 | -33.56936 | 149.78148 | 26022 ft | 478 kts | 287° |
| 2026-04-24 13:53 | -33.55872 | 149.74354 | 26310 ft | 482 kts | 287° |
| 2026-04-24 13:54 | -33.54807 | 149.70539 | 26618 ft | 485 kts | 286° |
| 2026-04-24 13:54 | -33.53739 | 149.66694 | 26930 ft | 487 kts | 286° |
| 2026-04-24 13:54 | -33.52667 | 149.62829 | 27237 ft | 490 kts | 286° |
| 2026-04-24 13:54 | -33.51589 | 149.58948 | 27544 ft | 492 kts | 286° |
| 2026-04-24 13:55 | -33.50507 | 149.55055 | 27926 ft | 493 kts | 286° |
| 2026-04-24 13:55 | -33.49420 | 149.51150 | 28222 ft | 495 kts | 285° |
| 2026-04-24 13:55 | -33.48327 | 149.47225 | 28411 ft | 500 kts | 285° |
| 2026-04-24 13:55 | -33.47220 | 149.43258 | 28471 ft | 504 kts | 286° |
| 2026-04-24 13:56 | -33.44998 | 149.35320 | 28489 ft | 500 kts | 286° |
| 2026-04-24 13:56 | -33.42804 | 149.27512 | 28512 ft | 498 kts | 286° |
| 2026-04-24 13:57 | -33.40948 | 149.20918 | 28499 ft | 499 kts | 286° |
| 2026-04-24 13:57 | -33.38368 | 149.11768 | 28497 ft | 499 kts | 286° |
| 2026-04-24 13:58 | -33.36140 | 149.03896 | 28487 ft | 500 kts | 286° |
| 2026-04-24 13:58 | -33.34285 | 148.97358 | 28488 ft | 499 kts | 286° |
| 2026-04-24 13:59 | -33.32049 | 148.89500 | 28479 ft | 499 kts | 286° |
| 2026-04-24 13:59 | -33.29815 | 148.81662 | 28479 ft | 498 kts | 286° |
| 2026-04-24 14:00 | -33.27577 | 148.73836 | 28463 ft | 497 kts | 286° |
| 2026-04-24 14:00 | -33.25336 | 148.66022 | 28466 ft | 497 kts | 286° |
| 2026-04-24 14:01 | -33.23094 | 148.58222 | 28465 ft | 496 kts | 286° |
| 2026-04-24 14:01 | -33.20847 | 148.50425 | 28461 ft | 496 kts | 286° |
| 2026-04-24 14:02 | -33.18597 | 148.42639 | 28446 ft | 496 kts | 286° |
| 2026-04-24 14:02 | -33.16347 | 148.34870 | 28447 ft | 495 kts | 286° |
| 2026-04-24 14:03 | -33.14082 | 148.27110 | 28448 ft | 495 kts | 288° |
| 2026-04-24 14:03 | -33.11067 | 148.19699 | 28423 ft | 500 kts | 300° |
| 2026-04-24 14:04 | -33.07243 | 148.12763 | 28425 ft | 500 kts | 301° |
| 2026-04-24 14:04 | -33.03421 | 148.05830 | 28431 ft | 500 kts | 300° |